createdAt,value
2022-09-26T00:01:43.214Z,100097.86
2022-09-26T00:04:23.704Z,100094.20
2022-09-26T00:06:56.124Z,100090.18
2022-09-26T00:09:27.212Z,100090.74
2022-09-26T00:11:55.765Z,100084.77
2022-09-26T00:14:28.937Z,100087.82
2022-09-26T00:16:58.022Z,100085.41
2022-09-26T00:19:26.548Z,100084.41
2022-09-26T00:21:55.573Z,100080.00
2022-09-26T00:24:24.300Z,100076.90
2022-09-26T00:26:52.718Z,100076.79
2022-09-26T00:29:21.036Z,100075.96
2022-09-26T00:31:49.457Z,100074.38
2022-09-26T00:34:19.855Z,100071.67
2022-09-26T00:36:50.114Z,100066.29
2022-09-26T00:39:18.743Z,100069.38
2022-09-26T00:41:47.369Z,100067.53
2022-09-26T00:44:54.789Z,100063.65
2022-09-26T00:47:45.001Z,100053.52
2022-09-26T00:50:26.789Z,100050.69
2022-09-26T00:53:05.041Z,100051.17
2022-09-26T00:55:39.079Z,100046.23
2022-09-26T00:58:14.931Z,100046.91
2022-09-26T01:00:47.394Z,100048.71
2022-09-26T01:03:17.395Z,100047.56
2022-09-26T01:05:47.140Z,100052.81
2022-09-26T01:08:22.125Z,100034.74
2022-09-26T01:10:50.681Z,100045.02
2022-09-26T01:13:21.114Z,100046.17
2022-09-26T01:15:49.637Z,100038.80
2022-09-26T01:18:18.962Z,100038.70
2022-09-26T01:22:03.145Z,100040.45
2022-09-26T01:25:01.171Z,100037.44
2022-09-26T01:27:55.887Z,100034.26
2022-09-26T01:30:27.010Z,100029.63
2022-09-26T01:33:03.373Z,100026.27
2022-09-26T01:36:28.894Z,100020.67
2022-09-26T01:39:41.750Z,100020.19
2022-09-26T01:42:47.217Z,100016.40
2022-09-26T01:45:27.480Z,100010.27
2022-09-26T01:48:11.257Z,100005.93
2022-09-26T01:51:33.591Z,100010.35
2022-09-26T01:54:14.218Z,100012.26
2022-09-26T01:56:44.460Z,100003.45
2022-09-26T01:59:30.634Z,100008.02
2022-09-26T02:02:10.034Z,100004.80
2022-09-26T02:04:44.749Z,100004.27
2022-09-26T02:07:19.391Z,99998.33
2022-09-26T02:09:58.447Z,99992.89
2022-09-26T02:12:36.833Z,99987.55
2022-09-26T02:15:11.832Z,99989.69
2022-09-26T02:17:46.894Z,99991.21
2022-09-26T02:20:23.846Z,99988.88
2022-09-26T02:22:52.868Z,99986.96
2022-09-26T02:25:21.388Z,99990.98
2022-09-26T02:27:50.513Z,99990.73
2022-09-26T02:30:19.139Z,99989.98
2022-09-26T02:32:48.965Z,99989.33
2022-09-26T02:35:36.542Z,99986.34
2022-09-26T02:38:06.891Z,99983.24
2022-09-26T02:41:02.398Z,99982.27
2022-09-26T02:44:38.052Z,99981.59
2022-09-26T02:47:33.873Z,99984.52
2022-09-26T02:50:38.120Z,99987.88
2022-09-26T02:53:21.791Z,99989.18
2022-09-26T02:56:28.762Z,99994.42
2022-09-26T02:59:03.079Z,99998.05
2022-09-26T03:02:09.960Z,99995.55
2022-09-26T03:04:52.396Z,99989.38
2022-09-26T03:07:37.565Z,99989.61
2022-09-26T03:10:09.429Z,99993.73
2022-09-26T03:12:40.007Z,99988.67
2022-09-26T03:15:12.302Z,99985.38
2022-09-26T03:17:50.452Z,99980.69
2022-09-26T03:20:21.852Z,99982.15
2022-09-26T03:22:51.853Z,99978.65
2022-09-26T03:25:27.653Z,99972.41
2022-09-26T03:28:07.228Z,99972.65
2022-09-26T03:30:35.853Z,99972.66
2022-09-26T03:33:49.427Z,99976.71
2022-09-26T03:36:18.603Z,99978.48
2022-09-26T03:38:47.165Z,99974.13
2022-09-26T03:41:59.339Z,99975.91
2022-09-26T03:44:30.376Z,99979.83
2022-09-26T03:47:07.826Z,99980.12
2022-09-26T03:49:40.676Z,99985.85
2022-09-26T03:52:12.069Z,99985.41
2022-09-26T03:54:41.017Z,99977.08
2022-09-26T03:57:12.897Z,99976.58
2022-09-26T03:59:46.357Z,99981.89
2022-09-26T04:02:16.848Z,99983.05
2022-09-26T04:04:45.845Z,99987.84
2022-09-26T04:07:16.277Z,99992.06
2022-09-26T04:09:44.637Z,99992.20
2022-09-26T04:12:13.258Z,99990.54
2022-09-26T04:14:43.743Z,99991.36
2022-09-26T04:17:13.001Z,99988.33
2022-09-26T04:19:44.505Z,99980.92
2022-09-26T04:22:13.119Z,99974.80
2022-09-26T04:24:41.953Z,99981.55
2022-09-26T04:27:10.567Z,99982.96
2022-09-26T04:29:39.186Z,99965.54
2022-09-26T04:32:13.407Z,99969.02
2022-09-26T04:34:52.290Z,99969.42
2022-09-26T04:37:21.512Z,99969.31
2022-09-26T04:39:50.036Z,99969.83
2022-09-26T04:42:18.715Z,99967.77
2022-09-26T04:44:48.392Z,99961.09
2022-09-26T04:47:18.015Z,99957.52
2022-09-26T04:50:06.592Z,99957.09
2022-09-26T04:52:35.124Z,99961.20
2022-09-26T04:55:04.143Z,99964.36
2022-09-26T04:57:32.967Z,99961.52
2022-09-26T05:00:02.159Z,99954.41
2022-09-26T05:02:31.377Z,99953.96
2022-09-26T05:05:00.445Z,99952.16
2022-09-26T05:07:29.662Z,99951.54
2022-09-26T05:09:58.091Z,99954.81
2022-09-26T05:12:28.525Z,99963.99
2022-09-26T05:14:56.922Z,99962.89
2022-09-26T05:17:25.461Z,99958.67
2022-09-26T05:19:53.972Z,99948.92
2022-09-26T05:22:32.175Z,99943.95
2022-09-26T05:25:19.124Z,99946.36
2022-09-26T05:27:49.247Z,99936.44
2022-09-26T05:30:17.674Z,99927.11
2022-09-26T05:32:48.704Z,99924.73
2022-09-26T05:35:17.923Z,99934.82
2022-09-26T05:37:46.444Z,99938.89
2022-09-26T05:40:33.680Z,99945.11
2022-09-26T05:43:03.770Z,99934.27
2022-09-26T05:45:32.989Z,99924.69
2022-09-26T05:48:03.317Z,99920.92
2022-09-26T05:50:33.444Z,99914.73
2022-09-26T05:53:02.970Z,99904.48
2022-09-26T05:55:32.270Z,99896.77
2022-09-26T05:58:56.413Z,99896.85
2022-09-26T06:01:43.422Z,99888.66
2022-09-26T06:04:18.241Z,99887.73
2022-09-26T06:07:03.421Z,99892.77
2022-09-26T06:09:31.945Z,99892.98
2022-09-26T06:12:19.834Z,99888.95
2022-09-26T06:14:48.508Z,99884.64
2022-09-26T06:17:16.872Z,99885.86
2022-09-26T06:19:45.503Z,99892.02
2022-09-26T06:22:14.017Z,99901.77
2022-09-26T06:24:42.538Z,99904.02
2022-09-26T06:27:13.368Z,99906.52
2022-09-26T06:29:41.789Z,99911.28
2022-09-26T06:32:10.384Z,99915.20
2022-09-26T06:35:14.170Z,99916.77
2022-09-26T06:37:46.691Z,99922.19
2022-09-26T06:40:15.743Z,99926.01
2022-09-26T06:42:45.521Z,99929.16
2022-09-26T06:45:28.423Z,99925.58
2022-09-26T06:48:12.198Z,99923.41
2022-09-26T06:51:04.434Z,99920.77
2022-09-26T06:53:35.203Z,99916.29
2022-09-26T06:56:04.634Z,99914.73
2022-09-26T06:58:34.343Z,99917.18
2022-09-26T07:01:06.899Z,99920.30
2022-09-26T07:03:54.462Z,99919.13
2022-09-26T07:06:42.849Z,99919.77
2022-09-26T07:09:12.424Z,99909.65
2022-09-26T07:12:13.957Z,99909.20
2022-09-26T07:14:38.565Z,99909.02
2022-09-26T07:17:19.732Z,99907.48
2022-09-26T07:20:12.239Z,99902.39
2022-09-26T07:23:06.754Z,99899.64
2022-09-26T07:25:39.703Z,99891.23
2022-09-26T07:28:09.900Z,99891.98
2022-09-26T07:30:57.274Z,99890.27
2022-09-26T07:33:40.409Z,99890.31
2022-09-26T07:36:11.631Z,99889.45
2022-09-26T07:38:40.443Z,99885.84
2022-09-26T07:41:11.466Z,99884.19
2022-09-26T07:44:34.726Z,99878.27
2022-09-26T07:46:50.386Z,99871.10
2022-09-26T07:49:37.361Z,99863.00
2022-09-26T07:53:04.813Z,99865.85
2022-09-26T07:55:33.188Z,99871.52
2022-09-26T07:58:19.973Z,99870.48
2022-09-26T08:01:38.376Z,99868.77
2022-09-26T08:04:25.714Z,99864.87
2022-09-26T08:06:56.576Z,99865.58
2022-09-26T08:09:25.447Z,99865.10
2022-09-26T08:12:50.120Z,99862.75
2022-09-26T08:15:42.479Z,99857.44
2022-09-26T08:18:16.377Z,99858.66
2022-09-26T08:20:48.204Z,99860.31
2022-09-26T08:23:18.050Z,99855.77
2022-09-26T08:25:53.505Z,99855.18
2022-09-26T08:29:12.696Z,99851.96
2022-09-26T08:31:42.179Z,99850.31
2022-09-26T08:34:10.799Z,99843.39
2022-09-26T08:36:39.400Z,99841.88
2022-09-26T08:39:11.289Z,99840.09
2022-09-26T08:42:10.121Z,99840.09
2022-09-26T08:44:54.639Z,99832.84
2022-09-26T08:47:55.381Z,99823.30
2022-09-26T08:51:35.539Z,99813.11
2022-09-26T08:54:34.568Z,99812.80
2022-09-26T08:57:28.242Z,99804.29
2022-09-26T08:59:56.900Z,99805.47
2022-09-26T09:02:42.116Z,99805.73
2022-09-26T09:05:27.228Z,99797.63
2022-09-26T09:07:58.968Z,99796.02
2022-09-26T09:10:52.170Z,99791.45
2022-09-26T09:14:00.521Z,99784.45
2022-09-26T09:17:46.690Z,99779.87
2022-09-26T09:20:53.383Z,99786.90
2022-09-26T09:24:19.703Z,99795.24
2022-09-26T09:30:17.487Z,99798.21
2022-09-26T09:33:08.807Z,99792.52
2022-09-26T09:36:09.181Z,99791.73
2022-09-26T09:38:48.981Z,99797.64
2022-09-26T09:41:47.736Z,99797.45
2022-09-26T09:44:49.112Z,99796.28
2022-09-26T09:47:19.609Z,99795.00
2022-09-26T09:49:50.370Z,99801.33
2022-09-26T09:52:49.441Z,99801.73
2022-09-26T09:56:00.165Z,99795.79
2022-09-26T09:59:03.812Z,99791.75
2022-09-26T10:01:44.845Z,99777.72
2022-09-26T10:04:44.145Z,99767.67
2022-09-26T10:07:13.303Z,99774.15
2022-09-26T10:09:44.207Z,99771.92
2022-09-26T10:12:35.196Z,99760.10
2022-09-26T10:15:27.611Z,99751.45
2022-09-26T10:18:59.535Z,99755.19
2022-09-26T10:21:48.878Z,99750.48
2022-09-26T10:24:41.047Z,99744.15
2022-09-26T10:27:38.802Z,99738.70
2022-09-26T10:30:33.196Z,99743.98
2022-09-26T10:33:05.773Z,99749.91
2022-09-26T10:35:46.533Z,99744.90
2022-09-26T10:38:23.808Z,99735.36
2022-09-26T10:41:03.573Z,99724.40
2022-09-26T10:43:38.114Z,99716.99
2022-09-26T10:46:20.894Z,99710.77
2022-09-26T10:49:14.059Z,99707.87
2022-09-26T10:52:45.906Z,99694.43
2022-09-26T10:55:29.866Z,99697.27
2022-09-26T10:58:10.082Z,99688.83
2022-09-26T11:00:50.523Z,99685.45
2022-09-26T11:03:34.672Z,99677.30
2022-09-26T11:06:45.211Z,99677.28
2022-09-26T11:09:31.155Z,99677.12
2022-09-26T11:12:29.676Z,99673.05
2022-09-26T11:15:10.989Z,99669.49
2022-09-26T11:17:51.502Z,99672.09
2022-09-26T11:20:52.174Z,99676.23
2022-09-26T11:23:46.288Z,99674.10
2022-09-26T11:26:28.542Z,99673.52
2022-09-26T11:29:27.921Z,99672.69
2022-09-26T11:32:33.931Z,99666.65
2022-09-26T11:35:22.225Z,99661.77
2022-09-26T11:38:18.893Z,99657.11
2022-09-26T11:41:07.340Z,99658.82
2022-09-26T11:43:46.641Z,99656.15
2022-09-26T11:46:40.111Z,99662.83
2022-09-26T11:49:36.118Z,99665.94
2022-09-26T11:53:10.327Z,99658.45
2022-09-26T11:55:56.819Z,99661.72
2022-09-26T11:58:36.837Z,99658.38
2022-09-26T12:01:05.203Z,99653.49
2022-09-26T12:03:43.658Z,99646.85
2022-09-26T12:06:33.714Z,99642.16
2022-09-26T12:09:10.345Z,99636.16
2022-09-26T12:12:00.253Z,99628.91
2022-09-26T12:14:40.265Z,99616.14
2022-09-26T12:17:36.364Z,99616.20
2022-09-26T12:20:57.018Z,99620.55
2022-09-26T12:24:12.177Z,99614.64
2022-09-26T12:27:07.629Z,99597.73
2022-09-26T12:30:25.276Z,99604.13
2022-09-26T12:33:21.027Z,99601.92
2022-09-26T12:36:19.042Z,99607.71
2022-09-26T12:39:24.920Z,99612.94
2022-09-26T12:42:28.363Z,99616.26
2022-09-26T12:45:45.224Z,99617.04
2022-09-26T12:48:57.309Z,99619.45
2022-09-26T12:51:52.347Z,99617.30
2022-09-26T12:54:44.737Z,99609.81
2022-09-26T12:57:43.949Z,99601.14
2022-09-26T13:00:18.618Z,99587.63
2022-09-26T13:03:35.578Z,99587.25
2022-09-26T13:06:12.998Z,99589.61
2022-09-26T13:09:16.065Z,99589.30
2022-09-26T13:12:01.951Z,99583.09
2022-09-26T13:15:32.643Z,99588.20
2022-09-26T13:18:22.994Z,99585.52
2022-09-26T13:21:00.358Z,99569.45
2022-09-26T13:23:36.234Z,99562.25
2022-09-26T13:26:26.193Z,99563.71
2022-09-26T13:29:24.518Z,99558.18
2022-09-26T13:32:06.831Z,99547.09
2022-09-26T13:34:42.574Z,99544.02
2022-09-26T13:37:36.564Z,99543.94
2022-09-26T13:40:40.900Z,99544.67
2022-09-26T13:43:36.519Z,99543.81
2022-09-26T13:46:30.378Z,99542.01
2022-09-26T13:49:07.741Z,99531.02
2022-09-26T13:51:54.686Z,99535.06
2022-09-26T13:54:57.562Z,99526.64
2022-09-26T13:57:35.305Z,99520.77
2022-09-26T14:00:23.521Z,99521.03
2022-09-26T14:03:19.250Z,99520.84
2022-09-26T14:05:51.775Z,99510.64
2022-09-26T14:08:44.430Z,99499.50
2022-09-26T14:11:19.146Z,99505.18
2022-09-26T14:13:48.734Z,99501.80
2022-09-26T14:16:34.362Z,99501.05
2022-09-26T14:19:28.960Z,99500.88
2022-09-26T14:22:23.660Z,99498.61
2022-09-26T14:24:54.452Z,99495.09
2022-09-26T14:27:39.484Z,99500.88
2022-09-26T14:30:13.978Z,99506.77
2022-09-26T14:32:47.032Z,99509.61
2022-09-26T14:35:19.748Z,99514.33
2022-09-26T14:37:51.351Z,99510.52
2022-09-26T14:40:30.485Z,99514.56
2022-09-26T14:43:14.425Z,99516.88
2022-09-26T14:45:49.024Z,99516.00
2022-09-26T14:48:32.439Z,99515.90
2022-09-26T14:51:12.687Z,99512.84
2022-09-26T14:54:27.393Z,99504.59
2022-09-26T14:57:08.055Z,99495.31
2022-09-26T14:59:36.401Z,99487.70
2022-09-26T15:02:14.709Z,99488.91
2022-09-26T15:04:47.352Z,99486.09
2022-09-26T15:07:24.279Z,99478.89
2022-09-26T15:10:13.834Z,99475.81
2022-09-26T15:12:52.577Z,99472.52
2022-09-26T15:15:55.029Z,99472.91
2022-09-26T15:18:36.105Z,99476.26
2022-09-26T15:21:27.116Z,99471.23
2022-09-26T15:23:57.830Z,99465.27
2022-09-26T15:26:37.161Z,99457.15
2022-09-26T15:29:09.072Z,99454.90
2022-09-26T15:31:47.456Z,99453.44
2022-09-26T15:34:39.943Z,99454.30
2022-09-26T15:37:32.364Z,99446.09
2022-09-26T15:40:24.401Z,99447.18
2022-09-26T15:43:22.531Z,99448.44
2022-09-26T15:45:59.921Z,99451.59
2022-09-26T15:48:32.613Z,99454.86
2022-09-26T15:51:19.730Z,99453.64
2022-09-26T15:54:22.961Z,99452.83
2022-09-26T15:56:52.418Z,99449.52
2022-09-26T15:59:30.400Z,99447.48
2022-09-26T16:02:00.776Z,99446.17
2022-09-26T16:04:32.955Z,99446.84
2022-09-26T16:07:15.532Z,99452.29
2022-09-26T16:09:47.059Z,99452.35
2022-09-26T16:12:15.634Z,99447.65
2022-09-26T16:15:18.832Z,99445.64
2022-09-26T16:17:54.229Z,99442.55
2022-09-26T16:20:27.415Z,99437.72
2022-09-26T16:23:04.681Z,99437.64
2022-09-26T16:25:40.610Z,99435.20
2022-09-26T16:28:10.193Z,99429.90
2022-09-26T16:31:10.668Z,99429.78
2022-09-26T16:33:41.307Z,99433.98
2022-09-26T16:36:22.338Z,99438.38
2022-09-26T16:39:03.631Z,99434.05
2022-09-26T16:42:03.377Z,99436.65
2022-09-26T16:44:42.828Z,99434.36
2022-09-26T16:47:50.482Z,99434.01
2022-09-26T16:50:31.362Z,99422.49
2022-09-26T16:53:06.886Z,99415.36
2022-09-26T16:55:37.562Z,99414.08
2022-09-26T16:58:06.450Z,99418.69
2022-09-26T17:00:54.242Z,99418.09
2022-09-26T17:03:30.765Z,99421.56
2022-09-26T17:06:00.963Z,99426.46
2022-09-26T17:08:29.835Z,99431.36
2022-09-26T17:11:03.321Z,99441.48
2022-09-26T17:13:35.615Z,99445.97
2022-09-26T17:16:04.294Z,99443.66
2022-09-26T17:18:35.165Z,99438.55
2022-09-26T17:21:03.984Z,99437.88
2022-09-26T17:23:41.393Z,99433.39
2022-09-26T17:26:22.337Z,99427.49
2022-09-26T17:28:53.414Z,99425.42
2022-09-26T17:31:22.080Z,99423.15
2022-09-26T17:33:53.400Z,99427.98
2022-09-26T17:36:27.395Z,99434.00
2022-09-26T17:38:59.613Z,99440.34
2022-09-26T17:41:31.498Z,99431.88
2022-09-26T17:44:01.261Z,99434.83
2022-09-26T17:46:30.518Z,99432.02
2022-09-26T17:48:59.513Z,99433.02
2022-09-26T17:51:29.409Z,99433.65
2022-09-26T17:53:57.886Z,99433.54
2022-09-26T17:56:26.653Z,99436.58
2022-09-26T17:58:57.282Z,99436.90
2022-09-26T18:01:35.070Z,99432.52
2022-09-26T18:04:07.707Z,99419.60
2022-09-26T18:06:37.090Z,99431.65
2022-09-26T18:09:10.159Z,99435.46
2022-09-26T18:11:41.862Z,99435.61
2022-09-26T18:14:17.947Z,99433.48
2022-09-26T18:16:46.840Z,99437.05
2022-09-26T18:19:15.694Z,99436.66
2022-09-26T18:21:44.415Z,99435.07
2022-09-26T18:24:19.781Z,99436.78
2022-09-26T18:26:50.949Z,99440.05
2022-09-26T18:29:35.541Z,99440.04
2022-09-26T18:32:12.180Z,99443.16
2022-09-26T18:34:40.707Z,99443.30
2022-09-26T18:37:09.224Z,99441.56
2022-09-26T18:39:37.752Z,99444.70
2022-09-26T18:42:12.026Z,99444.34
2022-09-26T18:44:40.916Z,99438.23
2022-09-26T18:47:16.725Z,99434.98
2022-09-26T18:49:46.764Z,99432.45
2022-09-26T18:52:18.064Z,99429.48
2022-09-26T18:55:07.013Z,99431.21
2022-09-26T18:57:54.297Z,99431.42
2022-09-26T19:00:22.824Z,99429.95
2022-09-26T19:02:51.501Z,99426.41
2022-09-26T19:05:20.679Z,99439.33
2022-09-26T19:07:49.592Z,99439.20
2022-09-26T19:10:22.476Z,99438.30
2022-09-26T19:12:51.061Z,99436.37
2022-09-26T19:15:19.668Z,99435.95
2022-09-26T19:17:50.073Z,99437.72
2022-09-26T19:20:18.528Z,99433.27
2022-09-26T19:22:47.446Z,99427.65
2022-09-26T19:25:16.036Z,99425.65
2022-09-26T19:27:54.420Z,99421.05
2022-09-26T19:30:23.454Z,99415.77
2022-09-26T19:32:56.107Z,99410.10
2022-09-26T19:35:25.107Z,99402.63
2022-09-26T19:37:54.227Z,99399.16
2022-09-26T19:40:24.885Z,99396.67
2022-09-26T19:42:53.585Z,99396.05
2022-09-26T19:45:22.305Z,99386.35
2022-09-26T19:47:54.509Z,99381.07
2022-09-26T19:50:27.067Z,99379.88
2022-09-26T19:52:58.763Z,99380.44
2022-09-26T19:55:29.706Z,99384.63
2022-09-26T19:58:19.139Z,99382.84
2022-09-26T20:00:54.846Z,99380.00
2022-09-26T20:03:31.544Z,99382.45
2022-09-26T20:06:00.054Z,99379.62
2022-09-26T20:08:28.571Z,99375.70
2022-09-26T20:10:59.307Z,99379.98
2022-09-26T20:13:27.929Z,99383.98
2022-09-26T20:15:57.049Z,99383.02
2022-09-26T20:18:25.778Z,99381.63
2022-09-26T20:20:56.902Z,99387.21
2022-09-26T20:23:27.334Z,99390.80
2022-09-26T20:25:56.765Z,99389.30
2022-09-26T20:28:25.262Z,99385.17
2022-09-26T20:30:55.509Z,99382.43
2022-09-26T20:33:27.012Z,99380.67
2022-09-26T20:36:04.620Z,99381.09
2022-09-26T20:38:51.180Z,99374.09
2022-09-26T20:41:28.934Z,99363.39
2022-09-26T20:44:02.298Z,99358.77
2022-09-26T20:46:36.134Z,99355.28
2022-09-26T20:49:12.929Z,99352.68
2022-09-26T20:51:41.888Z,99348.02
2022-09-26T20:54:33.448Z,99347.38
2022-09-26T20:57:01.911Z,99349.32
2022-09-26T20:59:30.532Z,99357.58
2022-09-26T21:02:00.264Z,99360.29
2022-09-26T21:04:32.991Z,99360.96
2022-09-26T21:07:01.439Z,99360.09
2022-09-26T21:09:29.936Z,99361.35
2022-09-26T21:11:58.457Z,99357.59
2022-09-26T21:14:26.978Z,99360.88
2022-09-26T21:16:55.679Z,99366.53
2022-09-26T21:19:25.326Z,99369.77
2022-09-26T21:22:02.857Z,99368.15
2022-09-26T21:25:05.927Z,99362.90
2022-09-26T21:27:34.750Z,99356.01
2022-09-26T21:30:03.669Z,99349.40
2022-09-26T21:32:33.013Z,99345.06
2022-09-26T21:35:05.216Z,99342.17
2022-09-26T21:37:34.655Z,99342.04
2022-09-26T21:40:03.491Z,99340.55
2022-09-26T21:42:32.501Z,99340.33
2022-09-26T21:45:06.095Z,99338.82
2022-09-26T21:47:36.873Z,99336.98
2022-09-26T21:50:08.481Z,99333.59
2022-09-26T21:52:46.171Z,99329.32
2022-09-26T21:55:30.006Z,99330.40
2022-09-26T21:58:05.377Z,99333.10
2022-09-26T22:00:33.901Z,99333.27
2022-09-26T22:03:02.423Z,99335.13
2022-09-26T22:05:31.550Z,99337.02
2022-09-26T22:08:00.371Z,99337.39
2022-09-26T22:10:29.493Z,99335.48
2022-09-26T22:12:58.621Z,99336.82
2022-09-26T22:15:27.139Z,99340.92
2022-09-26T22:17:55.863Z,99339.36
2022-09-26T22:20:24.584Z,99332.63
2022-09-26T22:22:53.202Z,99323.79
2022-09-26T22:25:21.725Z,99320.08
2022-09-26T22:27:50.248Z,99315.83
2022-09-26T22:30:18.771Z,99323.29
2022-09-26T22:32:47.293Z,99323.43
2022-09-26T22:35:15.917Z,99323.52
2022-09-26T22:37:44.488Z,99328.98
2022-09-26T22:40:13.110Z,99330.19
2022-09-26T22:42:41.678Z,99332.52
2022-09-26T22:45:11.164Z,99336.83
2022-09-26T22:47:39.630Z,99342.36
2022-09-26T22:50:08.862Z,99345.04
2022-09-26T22:52:37.576Z,99355.73
2022-09-26T22:55:07.979Z,99368.30
2022-09-26T22:57:36.533Z,99387.10
2022-09-26T23:00:06.259Z,99394.54
2022-09-26T23:02:35.413Z,99394.08
2022-09-26T23:05:04.602Z,99385.44
2022-09-26T23:07:33.318Z,99384.79
2022-09-26T23:10:02.045Z,99382.77
2022-09-26T23:12:32.463Z,99375.14
2022-09-26T23:15:00.892Z,99375.27
2022-09-26T23:17:29.417Z,99375.29
2022-09-26T23:19:57.833Z,99369.77
2022-09-26T23:22:26.359Z,99372.48
2022-09-26T23:24:55.480Z,99372.53
2022-09-26T23:27:25.304Z,99372.52
2022-09-26T23:29:55.541Z,99366.98
2022-09-26T23:32:24.256Z,99366.12
2022-09-26T23:34:52.957Z,99363.67
2022-09-26T23:37:21.512Z,99370.00
2022-09-26T23:39:50.524Z,99370.48
2022-09-26T23:42:19.010Z,99367.77
2022-09-26T23:44:47.571Z,99365.88
2022-09-26T23:47:16.088Z,99364.45
2022-09-26T23:49:44.514Z,99359.06
2022-09-26T23:52:13.233Z,99358.30
2022-09-26T23:54:42.565Z,99359.86
2022-09-26T23:57:11.184Z,99356.98
2022-09-26T23:59:39.806Z,99351.38
